sensor_id;sensor_type;location;lat;lon;timestamp;pressure;altitude;pressure_sealevel;temperature;humidity
10806;BME280;5455;53.224;6.000;2023-02-13T00:00:50;103892.50;;;6.53;100.00
10806;BME280;5455;53.224;6.000;2023-02-13T00:03:17;103891.66;;;6.52;100.00
10806;BME280;5455;53.224;6.000;2023-02-13T00:05:44;103887.28;;;6.51;100.00
10806;BME280;5455;53.224;6.000;2023-02-13T00:08:11;103883.44;;;6.52;100.00
10806;BME280;5455;53.224;6.000;2023-02-13T00:10:39;103878.97;;;6.46;100.00
10806;BME280;5455;53.224;6.000;2023-02-13T00:13:06;103884.53;;;6.51;100.00
10806;BME280;5455;53.224;6.000;2023-02-13T00:15:33;103886.19;;;6.52;100.00
10806;BME280;5455;53.224;6.000;2023-02-13T00:18:01;103882.38;;;6.53;100.00
10806;BME280;5455;53.224;6.000;2023-02-13T00:20:28;103887.53;;;6.50;100.00
10806;BME280;5455;53.224;6.000;2023-02-13T00:22:57;103889.94;;;6.46;100.00
10806;BME280;5455;53.224;6.000;2023-02-13T00:25:24;103883.94;;;6.49;100.00
10806;BME280;5455;53.224;6.000;2023-02-13T00:27:52;103880.47;;;6.54;100.00
10806;BME280;5455;53.224;6.000;2023-02-13T00:30:20;103880.31;;;6.65;100.00
10806;BME280;5455;53.224;6.000;2023-02-13T00:32:49;103880.88;;;6.68;100.00
10806;BME280;5455;53.224;6.000;2023-02-13T00:35:17;103880.31;;;6.65;100.00
10806;BME280;5455;53.224;6.000;2023-02-13T00:37:43;103870.69;;;6.63;100.00
10806;BME280;5455;53.224;6.000;2023-02-13T00:40:11;103869.81;;;6.57;100.00
10806;BME280;5455;53.224;6.000;2023-02-13T00:42:38;103876.59;;;6.55;100.00
10806;BME280;5455;53.224;6.000;2023-02-13T00:45:05;103868.09;;;6.51;100.00
10806;BME280;5455;53.224;6.000;2023-02-13T00:47:32;103877.41;;;6.50;100.00
10806;BME280;5455;53.224;6.000;2023-02-13T00:49:59;103874.66;;;6.50;100.00
10806;BME280;5455;53.224;6.000;2023-02-13T00:52:26;103877.13;;;6.52;100.00
10806;BME280;5455;53.224;6.000;2023-02-13T00:54:53;103875.53;;;6.56;100.00
10806;BME280;5455;53.224;6.000;2023-02-13T00:57:20;103868.66;;;6.53;100.00
10806;BME280;5455;53.224;6.000;2023-02-13T00:59:47;103865.88;;;6.48;100.00
10806;BME280;5455;53.224;6.000;2023-02-13T01:02:16;103872.09;;;6.44;100.00
10806;BME280;5455;53.224;6.000;2023-02-13T01:04:43;103867.22;;;6.46;100.00
10806;BME280;5455;53.224;6.000;2023-02-13T01:07:10;103867.78;;;6.48;100.00
10806;BME280;5455;53.224;6.000;2023-02-13T01:09:37;103869.41;;;6.49;100.00
10806;BME280;5455;53.224;6.000;2023-02-13T01:12:04;103871.06;;;6.50;100.00
10806;BME280;5455;53.224;6.000;2023-02-13T01:14:31;103871.41;;;6.53;100.00
10806;BME280;5455;53.224;6.000;2023-02-13T01:16:58;103876.84;;;6.48;100.00
10806;BME280;5455;53.224;6.000;2023-02-13T01:19:26;103880.91;;;6.46;100.00
10806;BME280;5455;53.224;6.000;2023-02-13T01:21:53;103876.50;;;6.45;100.00
10806;BME280;5455;53.224;6.000;2023-02-13T01:24:20;103886.66;;;6.44;100.00
10806;BME280;5455;53.224;6.000;2023-02-13T01:26:47;103883.06;;;6.44;100.00
10806;BME280;5455;53.224;6.000;2023-02-13T01:29:14;103880.59;;;6.42;100.00
10806;BME280;5455;53.224;6.000;2023-02-13T01:31:41;103863.38;;;6.47;100.00
10806;BME280;5455;53.224;6.000;2023-02-13T01:34:08;103870.84;;;6.51;100.00
10806;BME280;5455;53.224;6.000;2023-02-13T01:36:34;103877.97;;;6.52;100.00
10806;BME280;5455;53.224;6.000;2023-02-13T01:39:02;103868.59;;;6.48;100.00
10806;BME280;5455;53.224;6.000;2023-02-13T01:41:29;103874.28;;;6.42;100.00
10806;BME280;5455;53.224;6.000;2023-02-13T01:44:00;103864.66;;;6.39;100.00
10806;BME280;5455;53.224;6.000;2023-02-13T01:46:35;103869.56;;;6.37;100.00
10806;BME280;5455;53.224;6.000;2023-02-13T01:49:22;103870.41;;;6.38;100.00
10806;BME280;5455;53.224;6.000;2023-02-13T01:51:53;103866.81;;;6.37;100.00
10806;BME280;5455;53.224;6.000;2023-02-13T01:54:25;103866.25;;;6.35;100.00
10806;BME280;5455;53.224;6.000;2023-02-13T01:57:10;103856.13;;;6.36;100.00
10806;BME280;5455;53.224;6.000;2023-02-13T02:02:16;103856.13;;;6.36;100.00
10806;BME280;5455;53.224;6.000;2023-02-13T02:04:45;103858.59;;;6.37;100.00
10806;BME280;5455;53.224;6.000;2023-02-13T02:07:23;103853.13;;;6.37;100.00
10806;BME280;5455;53.224;6.000;2023-02-13T02:09:54;103847.13;;;6.40;100.00
10806;BME280;5455;53.224;6.000;2023-02-13T02:12:39;103851.81;;;6.40;100.00
10806;BME280;5455;53.224;6.000;2023-02-13T02:15:09;103849.81;;;6.35;100.00
10806;BME280;5455;53.224;6.000;2023-02-13T02:17:36;103846.50;;;6.33;100.00
10806;BME280;5455;53.224;6.000;2023-02-13T02:43:24;103833.06;;;6.32;100.00
10806;BME280;5455;53.224;6.000;2023-02-13T02:46:06;103831.97;;;6.33;100.00
10806;BME280;5455;53.224;6.000;2023-02-13T02:48:49;103842.16;;;6.37;100.00
10806;BME280;5455;53.224;6.000;2023-02-13T02:54:15;103841.28;;;6.32;100.00
10806;BME280;5455;53.224;6.000;2023-02-13T02:57:17;103828.41;;;6.32;100.00
10806;BME280;5455;53.224;6.000;2023-02-13T02:59:55;103827.34;;;6.33;100.00
10806;BME280;5455;53.224;6.000;2023-02-13T03:02:41;103816.09;;;6.35;100.00
10806;BME280;5455;53.224;6.000;2023-02-13T03:05:30;103822.94;;;6.32;100.00
10806;BME280;5455;53.224;6.000;2023-02-13T03:08:17;103817.72;;;6.31;100.00
10806;BME280;5455;53.224;6.000;2023-02-13T03:11:05;103817.44;;;6.32;100.00
10806;BME280;5455;53.224;6.000;2023-02-13T03:13:52;103818.00;;;6.34;100.00
10806;BME280;5455;53.224;6.000;2023-02-13T03:16:21;103814.47;;;6.34;100.00
10806;BME280;5455;53.224;6.000;2023-02-13T03:19:14;103819.31;;;6.27;100.00
10806;BME280;5455;53.224;6.000;2023-02-13T03:22:07;103809.69;;;6.24;100.00
10806;BME280;5455;53.224;6.000;2023-02-13T03:33:21;103808.84;;;6.24;100.00
10806;BME280;5455;53.224;6.000;2023-02-13T03:36:18;103804.44;;;6.23;100.00
10806;BME280;5455;53.224;6.000;2023-02-13T03:39:22;103806.69;;;6.26;100.00
10806;BME280;5455;53.224;6.000;2023-02-13T03:42:25;103813.56;;;6.28;100.00
10806;BME280;5455;53.224;6.000;2023-02-13T03:45:01;103815.78;;;6.31;100.00
10806;BME280;5455;53.224;6.000;2023-02-13T03:47:52;103810.81;;;6.28;100.00
10806;BME280;5455;53.224;6.000;2023-02-13T03:50:22;103821.78;;;6.28;100.00
10806;BME280;5455;53.224;6.000;2023-02-13T03:52:59;103802.88;;;6.27;100.00
10806;BME280;5455;53.224;6.000;2023-02-13T03:55:32;103802.06;;;6.31;100.00
10806;BME280;5455;53.224;6.000;2023-02-13T03:58:32;103817.72;;;6.31;100.00
10806;BME280;5455;53.224;6.000;2023-02-13T04:01:23;103813.81;;;6.27;100.00
10806;BME280;5455;53.224;6.000;2023-02-13T04:04:02;103824.22;;;6.25;100.00
10806;BME280;5455;53.224;6.000;2023-02-13T04:06:35;103820.06;;;6.22;100.00
10806;BME280;5455;53.224;6.000;2023-02-13T04:09:03;103815.16;;;6.24;100.00
10806;BME280;5455;53.224;6.000;2023-02-13T04:14:30;103813.00;;;6.26;100.00
10806;BME280;5455;53.224;6.000;2023-02-13T04:17:38;103821.84;;;6.33;100.00
10806;BME280;5455;53.224;6.000;2023-02-13T04:20:07;103812.28;;;6.36;100.00
10806;BME280;5455;53.224;6.000;2023-02-13T04:22:41;103812.53;;;6.34;100.00
10806;BME280;5455;53.224;6.000;2023-02-13T04:25:10;103815.53;;;6.33;100.00
10806;BME280;5455;53.224;6.000;2023-02-13T04:27:37;103813.66;;;6.38;100.00
10806;BME280;5455;53.224;6.000;2023-02-13T04:30:05;103811.50;;;6.40;100.00
10806;BME280;5455;53.224;6.000;2023-02-13T04:32:32;103813.44;;;6.40;100.00
10806;BME280;5455;53.224;6.000;2023-02-13T04:34:59;103806.84;;;6.41;100.00
10806;BME280;5455;53.224;6.000;2023-02-13T04:37:26;103808.22;;;6.43;100.00
10806;BME280;5455;53.224;6.000;2023-02-13T04:39:53;103803.03;;;6.42;100.00
10806;BME280;5455;53.224;6.000;2023-02-13T04:42:20;103799.44;;;6.41;100.00
10806;BME280;5455;53.224;6.000;2023-02-13T04:44:47;103790.91;;;6.38;100.00
10806;BME280;5455;53.224;6.000;2023-02-13T04:47:14;103797.00;;;6.40;100.00
10806;BME280;5455;53.224;6.000;2023-02-13T04:49:41;103797.28;;;6.43;100.00
10806;BME280;5455;53.224;6.000;2023-02-13T04:52:08;103799.78;;;6.45;100.00
10806;BME280;5455;53.224;6.000;2023-02-13T04:54:34;103790.16;;;6.42;100.00
10806;BME280;5455;53.224;6.000;2023-02-13T04:57:01;103794.50;;;6.38;100.00
10806;BME280;5455;53.224;6.000;2023-02-13T04:59:28;103782.97;;;6.36;100.00
10806;BME280;5455;53.224;6.000;2023-02-13T05:01:55;103792.81;;;6.37;100.00
10806;BME280;5455;53.224;6.000;2023-02-13T05:04:25;103788.50;;;6.41;100.00
10806;BME280;5455;53.224;6.000;2023-02-13T05:06:52;103786.81;;;6.40;100.00
10806;BME280;5455;53.224;6.000;2023-02-13T05:09:19;103785.50;;;6.43;100.00
10806;BME280;5455;53.224;6.000;2023-02-13T05:11:46;103775.63;;;6.42;100.00
10806;BME280;5455;53.224;6.000;2023-02-13T05:14:13;103785.75;;;6.41;100.00
10806;BME280;5455;53.224;6.000;2023-02-13T05:16:40;103786.25;;;6.38;100.00
10806;BME280;5455;53.224;6.000;2023-02-13T05:19:07;103779.94;;;6.38;100.00
10806;BME280;5455;53.224;6.000;2023-02-13T05:21:34;103785.44;;;6.38;100.00
10806;BME280;5455;53.224;6.000;2023-02-13T05:24:19;103784.59;;;6.37;100.00
10806;BME280;5455;53.224;6.000;2023-02-13T05:26:47;103789.31;;;6.42;100.00
10806;BME280;5455;53.224;6.000;2023-02-13T05:29:14;103788.50;;;6.41;100.00
10806;BME280;5455;53.224;6.000;2023-02-13T05:31:52;103797.78;;;6.40;100.00
10806;BME280;5455;53.224;6.000;2023-02-13T05:34:22;103794.50;;;6.38;100.00
10806;BME280;5455;53.224;6.000;2023-02-13T05:36:50;103801.88;;;6.38;100.00
10806;BME280;5455;53.224;6.000;2023-02-13T05:39:17;103790.59;;;6.34;100.00
10806;BME280;5455;53.224;6.000;2023-02-13T05:41:45;103802.41;;;6.35;100.00
10806;BME280;5455;53.224;6.000;2023-02-13T05:44:13;103809.53;;;6.36;100.00
10806;BME280;5455;53.224;6.000;2023-02-13T05:46:41;103805.97;;;6.35;100.00
10806;BME280;5455;53.224;6.000;2023-02-13T05:49:09;103806.81;;;6.36;100.00
10806;BME280;5455;53.224;6.000;2023-02-13T05:51:36;103811.22;;;6.37;100.00
10806;BME280;5455;53.224;6.000;2023-02-13T05:54:03;103810.63;;;6.35;100.00
10806;BME280;5455;53.224;6.000;2023-02-13T05:56:30;103812.53;;;6.34;100.00
10806;BME280;5455;53.224;6.000;2023-02-13T05:58:57;103809.78;;;6.34;100.00
10806;BME280;5455;53.224;6.000;2023-02-13T06:01:25;103820.75;;;6.34;100.00
10806;BME280;5455;53.224;6.000;2023-02-13T06:03:52;103822.41;;;6.35;100.00
10806;BME280;5455;53.224;6.000;2023-02-13T06:06:19;103822.69;;;6.34;100.00
10806;BME280;5455;53.224;6.000;2023-02-13T06:08:47;103821.53;;;6.30;100.00
10806;BME280;5455;53.224;6.000;2023-02-13T06:11:14;103822.88;;;6.27;100.00
10806;BME280;5455;53.224;6.000;2023-02-13T06:13:41;103820.38;;;6.26;100.00
10806;BME280;5455;53.224;6.000;2023-02-13T06:16:11;103829.69;;;6.25;100.00
10806;BME280;5455;53.224;6.000;2023-02-13T06:18:38;103821.72;;;6.23;100.00
10806;BME280;5455;53.224;6.000;2023-02-13T06:21:06;103834.91;;;6.26;100.00
10806;BME280;5455;53.224;6.000;2023-02-13T06:23:33;103837.66;;;6.26;100.00
10806;BME280;5455;53.224;6.000;2023-02-13T06:26:02;103833.25;;;6.25;100.00
10806;BME280;5455;53.224;6.000;2023-02-13T06:28:30;103832.69;;;6.23;100.00
10806;BME280;5455;53.224;6.000;2023-02-13T06:30:58;103825.53;;;6.22;100.00
10806;BME280;5455;53.224;6.000;2023-02-13T06:33:26;103833.25;;;6.25;100.00
10806;BME280;5455;53.224;6.000;2023-02-13T06:35:53;103823.13;;;6.26;100.00
10806;BME280;5455;53.224;6.000;2023-02-13T06:38:20;103826.13;;;6.24;100.00
10806;BME280;5455;53.224;6.000;2023-02-13T06:40:48;103826.69;;;6.26;100.00
10806;BME280;5455;53.224;6.000;2023-02-13T06:43:16;103832.72;;;6.28;100.00
10806;BME280;5455;53.224;6.000;2023-02-13T06:45:43;103818.44;;;6.21;100.00
10806;BME280;5455;53.224;6.000;2023-02-13T06:48:12;103829.44;;;6.26;100.00
10806;BME280;5455;53.224;6.000;2023-02-13T06:50:40;103826.44;;;6.28;100.00
10806;BME280;5455;53.224;6.000;2023-02-13T06:53:07;103835.47;;;6.28;100.00
10806;BME280;5455;53.224;6.000;2023-02-13T06:55:35;103837.09;;;6.24;100.00
10806;BME280;5455;53.224;6.000;2023-02-13T06:58:02;103842.56;;;6.24;100.00
10806;BME280;5455;53.224;6.000;2023-02-13T07:00:29;103833.25;;;6.25;100.00
10806;BME280;5455;53.224;6.000;2023-02-13T07:03:04;103841.22;;;6.27;100.00
10806;BME280;5455;53.224;6.000;2023-02-13T07:05:32;103840.38;;;6.26;100.00
10806;BME280;5455;53.224;6.000;2023-02-13T07:07:59;103840.66;;;6.25;100.00
10806;BME280;5455;53.224;6.000;2023-02-13T07:10:26;103843.41;;;6.25;100.00
10806;BME280;5455;53.224;6.000;2023-02-13T07:12:53;103849.44;;;6.27;100.00
10806;BME280;5455;53.224;6.000;2023-02-13T07:15:35;103845.88;;;6.26;100.00
10806;BME280;5455;53.224;6.000;2023-02-13T07:18:03;103844.22;;;6.25;100.00
10806;BME280;5455;53.224;6.000;2023-02-13T07:20:31;103849.69;;;6.25;100.00
10806;BME280;5455;53.224;6.000;2023-02-13T07:23:03;103859.06;;;6.29;100.00
10806;BME280;5455;53.224;6.000;2023-02-13T07:25:30;103850.84;;;6.29;100.00
10806;BME280;5455;53.224;6.000;2023-02-13T07:28:05;103844.28;;;6.30;100.00
10806;BME280;5455;53.224;6.000;2023-02-13T07:30:33;103851.66;;;6.30;100.00
10806;BME280;5455;53.224;6.000;2023-02-13T07:33:01;103849.75;;;6.30;100.00
10806;BME280;5455;53.224;6.000;2023-02-13T07:35:29;103865.41;;;6.35;100.00
10806;BME280;5455;53.224;6.000;2023-02-13T07:37:56;103865.19;;;6.36;100.00
10806;BME280;5455;53.224;6.000;2023-02-13T07:40:23;103858.34;;;6.39;100.00
10806;BME280;5455;53.224;6.000;2023-02-13T07:42:50;103861.09;;;6.39;100.00
10806;BME280;5455;53.224;6.000;2023-02-13T07:45:18;103855.94;;;6.42;100.00
10806;BME280;5455;53.224;6.000;2023-02-13T07:47:45;103865.28;;;6.46;100.00
10806;BME280;5455;53.224;6.000;2023-02-13T07:50:12;103859.28;;;6.49;100.00
10806;BME280;5455;53.224;6.000;2023-02-13T07:52:39;103856.31;;;6.51;100.00
10806;BME280;5455;53.224;6.000;2023-02-13T07:55:06;103867.59;;;6.54;100.00
10806;BME280;5455;53.224;6.000;2023-02-13T07:57:34;103859.34;;;6.54;100.00
10806;BME280;5455;53.224;6.000;2023-02-13T08:00:01;103868.69;;;6.58;100.00
10806;BME280;5455;53.224;6.000;2023-02-13T08:02:37;103865.44;;;6.61;100.00
10806;BME280;5455;53.224;6.000;2023-02-13T08:05:04;103865.13;;;6.58;100.00
10806;BME280;5455;53.224;6.000;2023-02-13T08:07:32;103870.94;;;6.61;100.00
10806;BME280;5455;53.224;6.000;2023-02-13T08:09:59;103872.06;;;6.65;100.00
10806;BME280;5455;53.224;6.000;2023-02-13T08:12:45;103864.47;;;6.73;100.00
10806;BME280;5455;53.224;6.000;2023-02-13T08:15:13;103862.28;;;6.75;100.00
10806;BME280;5455;53.224;6.000;2023-02-13T08:17:41;103866.13;;;6.74;100.00
10806;BME280;5455;53.224;6.000;2023-02-13T08:20:08;103865.59;;;6.77;100.00
10806;BME280;5455;53.224;6.000;2023-02-13T08:22:36;103868.66;;;6.80;100.00
10806;BME280;5455;53.224;6.000;2023-02-13T08:25:04;103874.47;;;6.84;100.00
10806;BME280;5455;53.224;6.000;2023-02-13T08:27:32;103863.28;;;6.90;100.00
10806;BME280;5455;53.224;6.000;2023-02-13T08:29:59;103865.72;;;6.87;100.00
10806;BME280;5455;53.224;6.000;2023-02-13T08:32:27;103881.09;;;6.88;100.00
10806;BME280;5455;53.224;6.000;2023-02-13T08:34:54;103866.78;;;6.86;100.00
10806;BME280;5455;53.224;6.000;2023-02-13T08:37:22;103875.13;;;6.96;100.00
10806;BME280;5455;53.224;6.000;2023-02-13T08:39:50;103871.84;;;6.99;100.00
10806;BME280;5455;53.224;6.000;2023-02-13T08:42:17;103868.59;;;7.02;100.00
10806;BME280;5455;53.224;6.000;2023-02-13T08:44:44;103871.66;;;7.05;100.00
10806;BME280;5455;53.224;6.000;2023-02-13T08:47:11;103873.00;;;7.03;100.00
10806;BME280;5455;53.224;6.000;2023-02-13T08:49:38;103872.72;;;7.04;100.00
10806;BME280;5455;53.224;6.000;2023-02-13T08:52:04;103876.31;;;7.05;100.00
10806;BME280;5455;53.224;6.000;2023-02-13T08:54:33;103880.97;;;7.04;100.00
10806;BME280;5455;53.224;6.000;2023-02-13T08:57:00;103877.13;;;7.05;100.00
10806;BME280;5455;53.224;6.000;2023-02-13T08:59:27;103880.97;;;7.04;100.00
10806;BME280;5455;53.224;6.000;2023-02-13T09:01:55;103881.50;;;7.06;100.00
10806;BME280;5455;53.224;6.000;2023-02-13T09:04:22;103881.00;;;7.09;100.00
10806;BME280;5455;53.224;6.000;2023-02-13T09:06:49;103883.22;;;7.12;100.00
10806;BME280;5455;53.224;6.000;2023-02-13T09:09:18;103877.19;;;7.15;100.00
10806;BME280;5455;53.224;6.000;2023-02-13T09:11:45;103872.53;;;7.16;100.00
10806;BME280;5455;53.224;6.000;2023-02-13T09:14:12;103878.06;;;7.21;100.00
10806;BME280;5455;53.224;6.000;2023-02-13T09:16:39;103873.16;;;7.23;100.00
10806;BME280;5455;53.224;6.000;2023-02-13T09:19:06;103876.47;;;7.25;100.00
10806;BME280;5455;53.224;6.000;2023-02-13T09:21:33;103877.53;;;7.24;100.00
10806;BME280;5455;53.224;6.000;2023-02-13T09:24:00;103874.75;;;7.19;100.00
10806;BME280;5455;53.224;6.000;2023-02-13T09:26:27;103879.50;;;7.24;100.00
10806;BME280;5455;53.224;6.000;2023-02-13T09:28:54;103874.03;;;7.29;100.00
10806;BME280;5455;53.224;6.000;2023-02-13T09:31:21;103872.16;;;7.34;100.00
10806;BME280;5455;53.224;6.000;2023-02-13T09:33:50;103875.72;;;7.35;100.00
10806;BME280;5455;53.224;6.000;2023-02-13T09:36:22;103872.75;;;7.41;100.00
10806;BME280;5455;53.224;6.000;2023-02-13T09:38:56;103881.53;;;7.43;100.00
10806;BME280;5455;53.224;6.000;2023-02-13T09:41:24;103873.88;;;7.45;100.00
10806;BME280;5455;53.224;6.000;2023-02-13T09:44:06;103865.63;;;7.45;100.00
10806;BME280;5455;53.224;6.000;2023-02-13T09:46:39;103877.19;;;7.47;100.00
10806;BME280;5455;53.224;6.000;2023-02-13T09:49:16;103875.28;;;7.48;100.00
10806;BME280;5455;53.224;6.000;2023-02-13T09:51:47;103871.19;;;7.50;100.00
10806;BME280;5455;53.224;6.000;2023-02-13T09:54:18;103877.22;;;7.52;100.00
10806;BME280;5455;53.224;6.000;2023-02-13T09:59:36;103870.13;;;7.56;100.00
10806;BME280;5455;53.224;6.000;2023-02-13T10:15:43;103876.88;;;7.81;100.00
10806;BME280;5455;53.224;6.000;2023-02-13T10:18:21;103877.41;;;7.83;100.00
10806;BME280;5455;53.224;6.000;2023-02-13T10:21:01;103880.19;;;7.88;100.00
10806;BME280;5455;53.224;6.000;2023-02-13T10:24:00;103874.97;;;7.86;100.00
10806;BME280;5455;53.224;6.000;2023-02-13T10:26:33;103877.72;;;7.91;100.00
10806;BME280;5455;53.224;6.000;2023-02-13T10:29:56;103874.38;;;7.84;100.00
10806;BME280;5455;53.224;6.000;2023-02-13T10:32:26;103877.47;;;7.93;100.00
10806;BME280;5455;53.224;6.000;2023-02-13T10:34:58;103882.69;;;7.89;100.00
10806;BME280;5455;53.224;6.000;2023-02-13T10:37:28;103884.06;;;7.97;100.00
10806;BME280;5455;53.224;6.000;2023-02-13T10:39:56;103879.69;;;7.96;100.00
10806;BME280;5455;53.224;6.000;2023-02-13T11:01:57;103863.28;;;8.11;100.00
10806;BME280;5455;53.224;6.000;2023-02-13T11:04:28;103865.50;;;8.19;100.00
10806;BME280;5455;53.224;6.000;2023-02-13T11:07:01;103863.91;;;8.28;100.00
10806;BME280;5455;53.224;6.000;2023-02-13T11:09:35;103858.94;;;8.25;100.00
10806;BME280;5455;53.224;6.000;2023-02-13T11:12:26;103860.00;;;8.24;100.00
10806;BME280;5455;53.224;6.000;2023-02-13T11:14:58;103855.63;;;8.23;100.00
10806;BME280;5455;53.224;6.000;2023-02-13T11:17:30;103855.06;;;8.21;100.00
10806;BME280;5455;53.224;6.000;2023-02-13T11:20:00;103845.72;;;8.27;100.00
10806;BME280;5455;53.224;6.000;2023-02-13T11:22:39;103841.38;;;8.36;100.00
10806;BME280;5455;53.224;6.000;2023-02-13T11:25:20;103843.31;;;8.36;100.00
10806;BME280;5455;53.224;6.000;2023-02-13T11:27:50;103842.50;;;8.35;100.00
10806;BME280;5455;53.224;6.000;2023-02-13T11:33:06;103834.00;;;8.57;100.00
10806;BME280;5455;53.224;6.000;2023-02-13T11:35:45;103831.00;;;8.58;100.00
10806;BME280;5455;53.224;6.000;2023-02-13T11:38:22;103832.91;;;8.63;100.00
10806;BME280;5455;53.224;6.000;2023-02-13T11:40:52;103840.63;;;8.61;100.00
10806;BME280;5455;53.224;6.000;2023-02-13T11:43:36;103835.13;;;8.56;100.00
10806;BME280;5455;53.224;6.000;2023-02-13T11:46:14;103836.22;;;8.60;100.00
10806;BME280;5455;53.224;6.000;2023-02-13T11:48:43;103826.63;;;8.67;100.00
10806;BME280;5455;53.224;6.000;2023-02-13T11:51:37;103827.44;;;8.68;100.00
10806;BME280;5455;53.224;6.000;2023-02-13T11:54:16;103830.19;;;8.68;100.00
10806;BME280;5455;53.224;6.000;2023-02-13T11:56:49;103825.81;;;8.92;100.00
10806;BME280;5455;53.224;6.000;2023-02-13T11:59:37;103817.84;;;9.01;100.00
10806;BME280;5455;53.224;6.000;2023-02-13T12:02:21;103812.31;;;8.91;100.00
10806;BME280;5455;53.224;6.000;2023-02-13T12:04:55;103804.34;;;8.84;100.00
10806;BME280;5455;53.224;6.000;2023-02-13T12:07:40;103807.38;;;9.03;100.00
10806;BME280;5455;53.224;6.000;2023-02-13T12:12:53;103808.47;;;9.07;100.00
10806;BME280;5455;53.224;6.000;2023-02-13T12:15:24;103798.56;;;9.06;100.00
10806;BME280;5455;53.224;6.000;2023-02-13T12:20:51;103799.06;;;9.23;100.00
10806;BME280;5455;53.224;6.000;2023-02-13T12:34:14;103785.28;;;9.48;100.00
10806;BME280;5455;53.224;6.000;2023-02-13T12:36:57;103781.94;;;9.56;100.00
10806;BME280;5455;53.224;6.000;2023-02-13T12:40:37;103778.94;;;9.48;100.00
10806;BME280;5455;53.224;6.000;2023-02-13T12:42:49;103775.34;;;9.52;100.00
10806;BME280;5455;53.224;6.000;2023-02-13T12:51:25;103769.00;;;9.52;100.00
10806;BME280;5455;53.224;6.000;2023-02-13T12:56:37;103770.59;;;9.73;100.00
10806;BME280;5455;53.224;6.000;2023-02-13T12:59:18;103758.91;;;9.96;100.00
10806;BME280;5455;53.224;6.000;2023-02-13T13:10:30;103754.28;;;9.76;100.00
10806;BME280;5455;53.224;6.000;2023-02-13T13:13:38;103749.91;;;9.70;100.00
10806;BME280;5455;53.224;6.000;2023-02-13T13:16:19;103748.78;;;9.76;100.00
10806;BME280;5455;53.224;6.000;2023-02-13T13:27:18;103743.59;;;9.65;100.00
10806;BME280;5455;53.224;6.000;2023-02-13T13:30:05;103737.72;;;9.86;100.00
10806;BME280;5455;53.224;6.000;2023-02-13T13:32:40;103735.13;;;10.05;100.00
10806;BME280;5455;53.224;6.000;2023-02-13T13:35:15;103735.66;;;10.12;100.00
10806;BME280;5455;53.224;6.000;2023-02-13T13:38:05;103727.41;;;10.07;100.00
10806;BME280;5455;53.224;6.000;2023-02-13T13:43:24;103717.47;;;10.11;100.00
10806;BME280;5455;53.224;6.000;2023-02-13T13:51:13;103720.19;;;10.16;100.00
10806;BME280;5455;53.224;6.000;2023-02-13T14:02:25;103704.78;;;10.10;100.00
10806;BME280;5455;53.224;6.000;2023-02-13T14:07:33;103695.44;;;10.06;100.00
10806;BME280;5455;53.224;6.000;2023-02-13T14:10:00;103694.56;;;10.11;100.00
10806;BME280;5455;53.224;6.000;2023-02-13T14:14:58;103698.03;;;9.87;100.00
10806;BME280;5455;53.224;6.000;2023-02-13T14:20:34;103684.75;;;9.94;100.00
10806;BME280;5455;53.224;6.000;2023-02-13T14:26:08;103684.25;;;9.87;100.00
10806;BME280;5455;53.224;6.000;2023-02-13T14:28:35;103683.69;;;9.85;100.00
10806;BME280;5455;53.224;6.000;2023-02-13T14:31:09;103689.28;;;9.75;100.00
10806;BME280;5455;53.224;6.000;2023-02-13T14:36:28;103688.69;;;9.83;100.00
10806;BME280;5455;53.224;6.000;2023-02-13T14:39:02;103687.56;;;9.84;100.00
10806;BME280;5455;53.224;6.000;2023-02-13T14:44:31;103684.03;;;9.79;100.00
10806;BME280;5455;53.224;6.000;2023-02-13T14:47:02;103680.72;;;9.77;100.00
10806;BME280;5455;53.224;6.000;2023-02-13T14:49:34;103685.03;;;9.93;100.00
10806;BME280;5455;53.224;6.000;2023-02-13T14:52:15;103682.84;;;9.90;100.00
10806;BME280;5455;53.224;6.000;2023-02-13T14:54:49;103686.44;;;9.85;100.00
10806;BME280;5455;53.224;6.000;2023-02-13T14:57:28;103677.69;;;9.73;100.00
10806;BME280;5455;53.224;6.000;2023-02-13T15:00:03;103676.63;;;9.69;100.00
10806;BME280;5455;53.224;6.000;2023-02-13T15:02:36;103677.22;;;9.66;100.00
10806;BME280;5455;53.224;6.000;2023-02-13T15:05:13;103678.00;;;9.72;100.00
10806;BME280;5455;53.224;6.000;2023-02-13T15:07:47;103675.75;;;9.79;100.00
10806;BME280;5455;53.224;6.000;2023-02-13T15:13:00;103671.97;;;9.65;100.00
10806;BME280;5455;53.224;6.000;2023-02-13T15:15:31;103673.34;;;9.62;100.00
10806;BME280;5455;53.224;6.000;2023-02-13T15:18:02;103680.00;;;9.61;100.00
10806;BME280;5455;53.224;6.000;2023-02-13T15:20:33;103681.06;;;9.65;100.00
10806;BME280;5455;53.224;6.000;2023-02-13T15:23:01;103674.50;;;9.61;100.00
10806;BME280;5455;53.224;6.000;2023-02-13T15:25:30;103678.06;;;9.57;100.00
10806;BME280;5455;53.224;6.000;2023-02-13T15:27:59;103670.41;;;9.49;100.00
10806;BME280;5455;53.224;6.000;2023-02-13T15:30:28;103674.22;;;9.53;100.00
10806;BME280;5455;53.224;6.000;2023-02-13T15:33:01;103674.78;;;9.50;100.00
10806;BME280;5455;53.224;6.000;2023-02-13T15:35:32;103662.97;;;9.44;100.00
10806;BME280;5455;53.224;6.000;2023-02-13T15:38:29;103672.09;;;9.34;100.00
10806;BME280;5455;53.224;6.000;2023-02-13T15:43:41;103661.09;;;9.34;100.00
10806;BME280;5455;53.224;6.000;2023-02-13T15:46:42;103678.47;;;9.30;100.00
10806;BME280;5455;53.224;6.000;2023-02-13T15:49:17;103668.00;;;9.27;100.00
10806;BME280;5455;53.224;6.000;2023-02-13T15:51:45;103668.00;;;9.27;100.00
10806;BME280;5455;53.224;6.000;2023-02-13T15:54:26;103661.41;;;9.28;100.00
10806;BME280;5455;53.224;6.000;2023-02-13T15:56:57;103665.81;;;9.24;100.00
10806;BME280;5455;53.224;6.000;2023-02-13T15:59:30;103670.25;;;9.25;100.00
10806;BME280;5455;53.224;6.000;2023-02-13T16:02:00;103668.84;;;9.22;100.00
10806;BME280;5455;53.224;6.000;2023-02-13T16:04:29;103670.53;;;9.18;100.00
10806;BME280;5455;53.224;6.000;2023-02-13T16:06:56;103666.16;;;9.12;100.00